sensor_id;sensor_type;location;lat;lon;timestamp;P1;durP1;ratioP1;P2;durP2;ratioP2
59434;SDS011;45241;49.768;8.636;2023-12-14T00:00:00;10.38;;;7.10;;
59434;SDS011;45241;49.768;8.636;2023-12-14T00:02:25;13.50;;;6.80;;
59434;SDS011;45241;49.768;8.636;2023-12-14T00:04:51;10.48;;;6.25;;
59434;SDS011;45241;49.768;8.636;2023-12-14T00:07:16;10.30;;;5.78;;
59434;SDS011;45241;49.768;8.636;2023-12-14T00:09:41;10.20;;;6.05;;
59434;SDS011;45241;49.768;8.636;2023-12-14T00:12:07;10.55;;;5.72;;
59434;SDS011;45241;49.768;8.636;2023-12-14T00:14:32;12.57;;;6.13;;
59434;SDS011;45241;49.768;8.636;2023-12-14T00:16:57;11.38;;;6.47;;
59434;SDS011;45241;49.768;8.636;2023-12-14T00:19:24;10.20;;;6.10;;
59434;SDS011;45241;49.768;8.636;2023-12-14T00:21:49;10.57;;;6.78;;
59434;SDS011;45241;49.768;8.636;2023-12-14T00:24:14;11.30;;;6.80;;
59434;SDS011;45241;49.768;8.636;2023-12-14T00:26:40;11.48;;;6.38;;
59434;SDS011;45241;49.768;8.636;2023-12-14T00:29:05;9.40;;;5.97;;
59434;SDS011;45241;49.768;8.636;2023-12-14T00:31:30;11.57;;;6.47;;
59434;SDS011;45241;49.768;8.636;2023-12-14T00:33:56;10.68;;;6.03;;
59434;SDS011;45241;49.768;8.636;2023-12-14T00:36:21;9.95;;;5.57;;
59434;SDS011;45241;49.768;8.636;2023-12-14T00:38:46;13.10;;;6.43;;
59434;SDS011;45241;49.768;8.636;2023-12-14T00:41:12;12.68;;;6.68;;
59434;SDS011;45241;49.768;8.636;2023-12-14T00:43:37;9.93;;;5.85;;
59434;SDS011;45241;49.768;8.636;2023-12-14T00:46:03;9.32;;;6.05;;
59434;SDS011;45241;49.768;8.636;2023-12-14T00:48:28;8.18;;;5.95;;
59434;SDS011;45241;49.768;8.636;2023-12-14T00:50:54;10.57;;;6.65;;
59434;SDS011;45241;49.768;8.636;2023-12-14T00:53:19;10.93;;;6.55;;
59434;SDS011;45241;49.768;8.636;2023-12-14T00:55:44;11.50;;;7.38;;
59434;SDS011;45241;49.768;8.636;2023-12-14T00:58:10;11.68;;;6.60;;
59434;SDS011;45241;49.768;8.636;2023-12-14T01:00:38;12.32;;;6.63;;
59434;SDS011;45241;49.768;8.636;2023-12-14T01:03:03;12.63;;;7.30;;
59434;SDS011;45241;49.768;8.636;2023-12-14T01:05:29;8.98;;;6.10;;
59434;SDS011;45241;49.768;8.636;2023-12-14T01:07:54;10.63;;;6.55;;
59434;SDS011;45241;49.768;8.636;2023-12-14T01:10:19;12.05;;;7.05;;
59434;SDS011;45241;49.768;8.636;2023-12-14T01:12:45;15.32;;;8.20;;
59434;SDS011;45241;49.768;8.636;2023-12-14T01:15:10;12.18;;;7.65;;
59434;SDS011;45241;49.768;8.636;2023-12-14T01:17:35;14.95;;;6.97;;
59434;SDS011;45241;49.768;8.636;2023-12-14T01:20:08;11.90;;;6.28;;
59434;SDS011;45241;49.768;8.636;2023-12-14T01:22:34;11.05;;;6.93;;
59434;SDS011;45241;49.768;8.636;2023-12-14T01:24:59;13.55;;;6.63;;
59434;SDS011;45241;49.768;8.636;2023-12-14T01:27:25;12.20;;;6.97;;
59434;SDS011;45241;49.768;8.636;2023-12-14T01:29:50;9.43;;;6.45;;
59434;SDS011;45241;49.768;8.636;2023-12-14T01:32:15;10.48;;;6.68;;
59434;SDS011;45241;49.768;8.636;2023-12-14T01:34:40;11.20;;;6.75;;
59434;SDS011;45241;49.768;8.636;2023-12-14T01:37:06;13.95;;;7.30;;
59434;SDS011;45241;49.768;8.636;2023-12-14T01:39:32;11.00;;;6.50;;
59434;SDS011;45241;49.768;8.636;2023-12-14T01:41:57;11.50;;;6.10;;
59434;SDS011;45241;49.768;8.636;2023-12-14T01:44:22;11.98;;;7.20;;
59434;SDS011;45241;49.768;8.636;2023-12-14T01:46:48;11.52;;;6.18;;
59434;SDS011;45241;49.768;8.636;2023-12-14T01:49:13;11.35;;;6.10;;
59434;SDS011;45241;49.768;8.636;2023-12-14T01:51:38;8.55;;;5.65;;
59434;SDS011;45241;49.768;8.636;2023-12-14T01:54:03;9.10;;;6.15;;
59434;SDS011;45241;49.768;8.636;2023-12-14T01:56:29;12.60;;;6.95;;
59434;SDS011;45241;49.768;8.636;2023-12-14T01:58:54;10.10;;;6.40;;
59434;SDS011;45241;49.768;8.636;2023-12-14T02:01:33;9.75;;;6.25;;
59434;SDS011;45241;49.768;8.636;2023-12-14T02:04:05;9.98;;;5.88;;
59434;SDS011;45241;49.768;8.636;2023-12-14T02:06:32;8.68;;;5.97;;
59434;SDS011;45241;49.768;8.636;2023-12-14T02:08:58;13.27;;;7.47;;
59434;SDS011;45241;49.768;8.636;2023-12-14T02:11:23;9.40;;;6.57;;
59434;SDS011;45241;49.768;8.636;2023-12-14T02:13:48;15.18;;;7.63;;
59434;SDS011;45241;49.768;8.636;2023-12-14T02:16:14;11.80;;;7.38;;
59434;SDS011;45241;49.768;8.636;2023-12-14T02:18:40;13.93;;;6.45;;
59434;SDS011;45241;49.768;8.636;2023-12-14T02:21:05;14.85;;;9.55;;
59434;SDS011;45241;49.768;8.636;2023-12-14T02:23:30;15.50;;;9.50;;
59434;SDS011;45241;49.768;8.636;2023-12-14T02:25:56;18.25;;;10.32;;
59434;SDS011;45241;49.768;8.636;2023-12-14T02:28:21;20.63;;;9.98;;
59434;SDS011;45241;49.768;8.636;2023-12-14T02:30:46;13.43;;;9.30;;
59434;SDS011;45241;49.768;8.636;2023-12-14T02:33:12;17.80;;;10.00;;
59434;SDS011;45241;49.768;8.636;2023-12-14T02:35:37;19.58;;;10.85;;
59434;SDS011;45241;49.768;8.636;2023-12-14T02:38:02;20.70;;;10.05;;
59434;SDS011;45241;49.768;8.636;2023-12-14T02:40:27;17.45;;;9.70;;
59434;SDS011;45241;49.768;8.636;2023-12-14T02:42:53;17.08;;;8.80;;
59434;SDS011;45241;49.768;8.636;2023-12-14T02:45:18;15.10;;;8.73;;
59434;SDS011;45241;49.768;8.636;2023-12-14T02:47:43;14.35;;;8.68;;
59434;SDS011;45241;49.768;8.636;2023-12-14T02:50:09;13.10;;;7.97;;
59434;SDS011;45241;49.768;8.636;2023-12-14T02:52:34;12.85;;;7.40;;
59434;SDS011;45241;49.768;8.636;2023-12-14T02:54:59;12.20;;;8.13;;
59434;SDS011;45241;49.768;8.636;2023-12-14T02:57:25;11.38;;;8.25;;
59434;SDS011;45241;49.768;8.636;2023-12-14T02:59:51;13.38;;;8.32;;
59434;SDS011;45241;49.768;8.636;2023-12-14T03:02:16;14.75;;;8.40;;
59434;SDS011;45241;49.768;8.636;2023-12-14T03:04:41;12.38;;;8.07;;
59434;SDS011;45241;49.768;8.636;2023-12-14T03:07:06;13.98;;;8.38;;
59434;SDS011;45241;49.768;8.636;2023-12-14T03:09:32;14.02;;;8.02;;
59434;SDS011;45241;49.768;8.636;2023-12-14T03:11:59;13.40;;;8.10;;
59434;SDS011;45241;49.768;8.636;2023-12-14T03:14:25;13.75;;;8.65;;
59434;SDS011;45241;49.768;8.636;2023-12-14T03:16:50;13.40;;;8.27;;
59434;SDS011;45241;49.768;8.636;2023-12-14T03:19:16;12.35;;;7.40;;
59434;SDS011;45241;49.768;8.636;2023-12-14T03:21:41;10.80;;;7.30;;
59434;SDS011;45241;49.768;8.636;2023-12-14T03:24:07;12.23;;;7.60;;
59434;SDS011;45241;49.768;8.636;2023-12-14T03:26:34;13.43;;;8.45;;
59434;SDS011;45241;49.768;8.636;2023-12-14T03:28:59;10.85;;;7.55;;
59434;SDS011;45241;49.768;8.636;2023-12-14T03:31:25;15.50;;;7.97;;
59434;SDS011;45241;49.768;8.636;2023-12-14T03:33:50;15.30;;;7.88;;
59434;SDS011;45241;49.768;8.636;2023-12-14T03:36:15;13.40;;;7.18;;
59434;SDS011;45241;49.768;8.636;2023-12-14T03:38:40;14.93;;;8.93;;
59434;SDS011;45241;49.768;8.636;2023-12-14T03:41:06;14.95;;;8.25;;
59434;SDS011;45241;49.768;8.636;2023-12-14T03:43:31;15.60;;;9.57;;
59434;SDS011;45241;49.768;8.636;2023-12-14T03:45:56;20.25;;;10.23;;
59434;SDS011;45241;49.768;8.636;2023-12-14T03:48:22;19.60;;;11.10;;
59434;SDS011;45241;49.768;8.636;2023-12-14T03:50:47;16.63;;;10.18;;
59434;SDS011;45241;49.768;8.636;2023-12-14T03:53:12;15.80;;;9.35;;
59434;SDS011;45241;49.768;8.636;2023-12-14T03:55:37;13.32;;;8.48;;
59434;SDS011;45241;49.768;8.636;2023-12-14T03:58:03;16.40;;;9.20;;
59434;SDS011;45241;49.768;8.636;2023-12-14T04:00:28;14.82;;;9.45;;
59434;SDS011;45241;49.768;8.636;2023-12-14T04:02:53;16.50;;;10.15;;
59434;SDS011;45241;49.768;8.636;2023-12-14T04:05:19;18.08;;;11.10;;
59434;SDS011;45241;49.768;8.636;2023-12-14T04:07:44;19.40;;;10.80;;
59434;SDS011;45241;49.768;8.636;2023-12-14T04:10:10;19.23;;;10.45;;
59434;SDS011;45241;49.768;8.636;2023-12-14T04:12:36;17.02;;;10.13;;
59434;SDS011;45241;49.768;8.636;2023-12-14T04:15:02;15.93;;;9.18;;
59434;SDS011;45241;49.768;8.636;2023-12-14T04:17:30;20.10;;;9.90;;
59434;SDS011;45241;49.768;8.636;2023-12-14T04:19:56;13.10;;;8.52;;
59434;SDS011;45241;49.768;8.636;2023-12-14T04:22:21;13.65;;;9.52;;
59434;SDS011;45241;49.768;8.636;2023-12-14T04:24:46;15.30;;;9.10;;
59434;SDS011;45241;49.768;8.636;2023-12-14T04:27:12;15.82;;;9.45;;
59434;SDS011;45241;49.768;8.636;2023-12-14T04:29:37;15.68;;;9.50;;
59434;SDS011;45241;49.768;8.636;2023-12-14T04:32:02;17.55;;;9.30;;
59434;SDS011;45241;49.768;8.636;2023-12-14T04:34:28;14.57;;;9.00;;
59434;SDS011;45241;49.768;8.636;2023-12-14T04:36:53;15.48;;;9.15;;
59434;SDS011;45241;49.768;8.636;2023-12-14T04:39:22;17.95;;;9.55;;
59434;SDS011;45241;49.768;8.636;2023-12-14T04:41:47;14.05;;;8.35;;
59434;SDS011;45241;49.768;8.636;2023-12-14T04:44:13;18.70;;;9.00;;
59434;SDS011;45241;49.768;8.636;2023-12-14T04:46:38;19.83;;;9.55;;
59434;SDS011;45241;49.768;8.636;2023-12-14T04:49:03;21.35;;;9.32;;
59434;SDS011;45241;49.768;8.636;2023-12-14T04:51:29;19.33;;;10.75;;
59434;SDS011;45241;49.768;8.636;2023-12-14T04:53:54;19.67;;;11.05;;
59434;SDS011;45241;49.768;8.636;2023-12-14T04:56:19;19.17;;;9.73;;
59434;SDS011;45241;49.768;8.636;2023-12-14T04:58:44;19.73;;;9.70;;
59434;SDS011;45241;49.768;8.636;2023-12-14T05:01:11;14.35;;;9.07;;
59434;SDS011;45241;49.768;8.636;2023-12-14T05:03:36;14.55;;;8.73;;
59434;SDS011;45241;49.768;8.636;2023-12-14T05:06:02;19.73;;;9.60;;
59434;SDS011;45241;49.768;8.636;2023-12-14T05:08:27;14.98;;;9.32;;
59434;SDS011;45241;49.768;8.636;2023-12-14T05:10:52;16.02;;;9.18;;
59434;SDS011;45241;49.768;8.636;2023-12-14T05:13:18;15.40;;;9.50;;
59434;SDS011;45241;49.768;8.636;2023-12-14T05:15:43;14.77;;;8.23;;
59434;SDS011;45241;49.768;8.636;2023-12-14T05:18:08;16.52;;;9.20;;
59434;SDS011;45241;49.768;8.636;2023-12-14T05:20:34;18.90;;;8.90;;
59434;SDS011;45241;49.768;8.636;2023-12-14T05:23:00;15.25;;;9.63;;
59434;SDS011;45241;49.768;8.636;2023-12-14T05:25:26;18.48;;;9.70;;
59434;SDS011;45241;49.768;8.636;2023-12-14T05:27:51;22.30;;;10.30;;
59434;SDS011;45241;49.768;8.636;2023-12-14T05:30:16;18.58;;;9.98;;
59434;SDS011;45241;49.768;8.636;2023-12-14T05:32:42;16.67;;;9.85;;
59434;SDS011;45241;49.768;8.636;2023-12-14T05:35:08;15.93;;;9.93;;
59434;SDS011;45241;49.768;8.636;2023-12-14T05:37:34;16.02;;;8.70;;
59434;SDS011;45241;49.768;8.636;2023-12-14T05:40:00;18.10;;;9.50;;
59434;SDS011;45241;49.768;8.636;2023-12-14T05:42:25;17.88;;;9.38;;
59434;SDS011;45241;49.768;8.636;2023-12-14T05:44:50;17.60;;;9.20;;
59434;SDS011;45241;49.768;8.636;2023-12-14T05:47:15;14.70;;;8.35;;
59434;SDS011;45241;49.768;8.636;2023-12-14T05:49:41;15.90;;;8.55;;
59434;SDS011;45241;49.768;8.636;2023-12-14T05:52:07;14.43;;;8.48;;
59434;SDS011;45241;49.768;8.636;2023-12-14T05:54:33;15.25;;;8.95;;
59434;SDS011;45241;49.768;8.636;2023-12-14T05:57:01;14.90;;;8.30;;
59434;SDS011;45241;49.768;8.636;2023-12-14T05:59:26;16.88;;;9.43;;
59434;SDS011;45241;49.768;8.636;2023-12-14T06:01:56;23.80;;;13.85;;
59434;SDS011;45241;49.768;8.636;2023-12-14T06:04:22;17.73;;;10.82;;
59434;SDS011;45241;49.768;8.636;2023-12-14T06:06:47;17.23;;;9.85;;
59434;SDS011;45241;49.768;8.636;2023-12-14T06:09:13;17.00;;;9.88;;
59434;SDS011;45241;49.768;8.636;2023-12-14T06:11:38;16.80;;;9.82;;
59434;SDS011;45241;49.768;8.636;2023-12-14T06:14:03;17.23;;;9.38;;
59434;SDS011;45241;49.768;8.636;2023-12-14T06:16:28;15.07;;;8.73;;
59434;SDS011;45241;49.768;8.636;2023-12-14T06:18:54;18.52;;;9.15;;
59434;SDS011;45241;49.768;8.636;2023-12-14T06:21:19;16.52;;;9.55;;
59434;SDS011;45241;49.768;8.636;2023-12-14T06:23:44;17.55;;;9.45;;
59434;SDS011;45241;49.768;8.636;2023-12-14T06:26:09;15.20;;;8.55;;
59434;SDS011;45241;49.768;8.636;2023-12-14T06:28:35;15.38;;;8.45;;
59434;SDS011;45241;49.768;8.636;2023-12-14T06:31:00;14.82;;;9.02;;
59434;SDS011;45241;49.768;8.636;2023-12-14T06:33:26;14.60;;;8.80;;
59434;SDS011;45241;49.768;8.636;2023-12-14T06:35:51;13.95;;;9.45;;
59434;SDS011;45241;49.768;8.636;2023-12-14T06:38:17;16.73;;;8.90;;
59434;SDS011;45241;49.768;8.636;2023-12-14T06:40:42;17.50;;;9.60;;
59434;SDS011;45241;49.768;8.636;2023-12-14T06:43:07;13.52;;;9.40;;
59434;SDS011;45241;49.768;8.636;2023-12-14T06:45:33;13.48;;;8.65;;
59434;SDS011;45241;49.768;8.636;2023-12-14T06:47:58;16.27;;;9.07;;
59434;SDS011;45241;49.768;8.636;2023-12-14T06:50:23;18.67;;;10.45;;
59434;SDS011;45241;49.768;8.636;2023-12-14T06:52:48;17.33;;;9.18;;
59434;SDS011;45241;49.768;8.636;2023-12-14T06:55:14;25.45;;;13.35;;
59434;SDS011;45241;49.768;8.636;2023-12-14T06:57:42;14.52;;;9.43;;
59434;SDS011;45241;49.768;8.636;2023-12-14T07:00:08;16.58;;;10.63;;
59434;SDS011;45241;49.768;8.636;2023-12-14T07:02:34;17.20;;;9.77;;
59434;SDS011;45241;49.768;8.636;2023-12-14T07:04:59;15.75;;;9.60;;
59434;SDS011;45241;49.768;8.636;2023-12-14T07:07:25;14.85;;;9.38;;
59434;SDS011;45241;49.768;8.636;2023-12-14T07:09:50;15.63;;;9.45;;
59434;SDS011;45241;49.768;8.636;2023-12-14T07:12:16;16.52;;;9.27;;
59434;SDS011;45241;49.768;8.636;2023-12-14T07:14:41;17.55;;;10.95;;
59434;SDS011;45241;49.768;8.636;2023-12-14T07:17:07;17.45;;;10.75;;
59434;SDS011;45241;49.768;8.636;2023-12-14T07:19:32;15.80;;;10.13;;
59434;SDS011;45241;49.768;8.636;2023-12-14T07:21:57;16.00;;;9.40;;
59434;SDS011;45241;49.768;8.636;2023-12-14T07:24:22;20.98;;;10.85;;
59434;SDS011;45241;49.768;8.636;2023-12-14T07:26:48;18.45;;;10.50;;
59434;SDS011;45241;49.768;8.636;2023-12-14T07:29:13;17.02;;;10.13;;
59434;SDS011;45241;49.768;8.636;2023-12-14T07:31:38;20.42;;;11.52;;
59434;SDS011;45241;49.768;8.636;2023-12-14T07:34:03;18.23;;;10.48;;
59434;SDS011;45241;49.768;8.636;2023-12-14T07:36:29;16.42;;;10.27;;
59434;SDS011;45241;49.768;8.636;2023-12-14T07:38:54;21.20;;;10.70;;
59434;SDS011;45241;49.768;8.636;2023-12-14T07:41:20;18.83;;;10.60;;
59434;SDS011;45241;49.768;8.636;2023-12-14T07:43:48;18.02;;;10.30;;
59434;SDS011;45241;49.768;8.636;2023-12-14T07:46:13;19.80;;;11.38;;
59434;SDS011;45241;49.768;8.636;2023-12-14T07:48:39;17.55;;;10.68;;
59434;SDS011;45241;49.768;8.636;2023-12-14T07:51:04;17.20;;;10.27;;
59434;SDS011;45241;49.768;8.636;2023-12-14T07:53:30;18.98;;;10.55;;
59434;SDS011;45241;49.768;8.636;2023-12-14T07:55:55;17.05;;;10.20;;
59434;SDS011;45241;49.768;8.636;2023-12-14T07:58:20;23.02;;;10.40;;
59434;SDS011;45241;49.768;8.636;2023-12-14T08:00:46;16.65;;;10.02;;
59434;SDS011;45241;49.768;8.636;2023-12-14T08:03:11;17.30;;;9.95;;
59434;SDS011;45241;49.768;8.636;2023-12-14T08:05:37;17.52;;;9.77;;
59434;SDS011;45241;49.768;8.636;2023-12-14T08:08:02;16.77;;;9.82;;
59434;SDS011;45241;49.768;8.636;2023-12-14T08:10:27;16.52;;;9.25;;
59434;SDS011;45241;49.768;8.636;2023-12-14T08:12:53;15.55;;;9.30;;
59434;SDS011;45241;49.768;8.636;2023-12-14T08:15:18;14.82;;;9.77;;
59434;SDS011;45241;49.768;8.636;2023-12-14T08:17:43;15.18;;;9.68;;
59434;SDS011;45241;49.768;8.636;2023-12-14T08:20:09;18.25;;;9.77;;
59434;SDS011;45241;49.768;8.636;2023-12-14T08:22:36;15.40;;;8.77;;
59434;SDS011;45241;49.768;8.636;2023-12-14T08:25:02;19.23;;;9.68;;
59434;SDS011;45241;49.768;8.636;2023-12-14T08:27:28;18.20;;;9.82;;
59434;SDS011;45241;49.768;8.636;2023-12-14T08:29:54;17.67;;;9.43;;
59434;SDS011;45241;49.768;8.636;2023-12-14T08:32:19;16.60;;;9.75;;
59434;SDS011;45241;49.768;8.636;2023-12-14T08:34:44;16.10;;;9.38;;
59434;SDS011;45241;49.768;8.636;2023-12-14T08:37:10;17.80;;;9.73;;
59434;SDS011;45241;49.768;8.636;2023-12-14T08:39:35;16.80;;;10.13;;
59434;SDS011;45241;49.768;8.636;2023-12-14T08:42:00;14.95;;;9.02;;
59434;SDS011;45241;49.768;8.636;2023-12-14T08:44:25;18.60;;;10.25;;
59434;SDS011;45241;49.768;8.636;2023-12-14T08:46:51;18.98;;;11.18;;
59434;SDS011;45241;49.768;8.636;2023-12-14T08:49:16;17.40;;;10.48;;
59434;SDS011;45241;49.768;8.636;2023-12-14T08:51:41;18.27;;;10.77;;
59434;SDS011;45241;49.768;8.636;2023-12-14T08:54:07;17.40;;;11.65;;
59434;SDS011;45241;49.768;8.636;2023-12-14T08:56:32;20.50;;;11.15;;
59434;SDS011;45241;49.768;8.636;2023-12-14T08:58:58;20.15;;;11.88;;
59434;SDS011;45241;49.768;8.636;2023-12-14T09:01:24;22.60;;;12.57;;
59434;SDS011;45241;49.768;8.636;2023-12-14T09:03:50;21.75;;;11.85;;
59434;SDS011;45241;49.768;8.636;2023-12-14T09:06:16;19.80;;;11.23;;
59434;SDS011;45241;49.768;8.636;2023-12-14T09:08:42;19.42;;;11.15;;
59434;SDS011;45241;49.768;8.636;2023-12-14T09:11:08;21.98;;;11.30;;
59434;SDS011;45241;49.768;8.636;2023-12-14T09:13:33;22.77;;;12.63;;
59434;SDS011;45241;49.768;8.636;2023-12-14T09:15:59;23.10;;;12.25;;
59434;SDS011;45241;49.768;8.636;2023-12-14T09:18:24;21.88;;;12.45;;
59434;SDS011;45241;49.768;8.636;2023-12-14T09:20:50;20.02;;;12.23;;
59434;SDS011;45241;49.768;8.636;2023-12-14T09:23:16;22.48;;;12.15;;
59434;SDS011;45241;49.768;8.636;2023-12-14T09:25:41;21.42;;;12.20;;
59434;SDS011;45241;49.768;8.636;2023-12-14T09:28:06;19.75;;;11.48;;
59434;SDS011;45241;49.768;8.636;2023-12-14T09:30:32;21.63;;;11.38;;
59434;SDS011;45241;49.768;8.636;2023-12-14T09:32:57;21.23;;;12.93;;
59434;SDS011;45241;49.768;8.636;2023-12-14T09:35:23;24.52;;;12.95;;
59434;SDS011;45241;49.768;8.636;2023-12-14T09:37:48;18.98;;;12.02;;
59434;SDS011;45241;49.768;8.636;2023-12-14T09:40:14;20.67;;;12.18;;
59434;SDS011;45241;49.768;8.636;2023-12-14T09:42:41;20.70;;;12.52;;
59434;SDS011;45241;49.768;8.636;2023-12-14T09:45:07;18.95;;;11.48;;
59434;SDS011;45241;49.768;8.636;2023-12-14T09:47:34;21.10;;;11.45;;
59434;SDS011;45241;49.768;8.636;2023-12-14T09:50:00;23.50;;;13.07;;
59434;SDS011;45241;49.768;8.636;2023-12-14T09:52:26;20.65;;;11.48;;
59434;SDS011;45241;49.768;8.636;2023-12-14T09:54:51;20.92;;;12.43;;
59434;SDS011;45241;49.768;8.636;2023-12-14T09:57:18;20.73;;;12.30;;
59434;SDS011;45241;49.768;8.636;2023-12-14T09:59:50;20.17;;;12.20;;
59434;SDS011;45241;49.768;8.636;2023-12-14T10:02:18;19.58;;;11.32;;
59434;SDS011;45241;49.768;8.636;2023-12-14T10:04:45;18.23;;;11.60;;
59434;SDS011;45241;49.768;8.636;2023-12-14T10:07:11;20.75;;;12.57;;
59434;SDS011;45241;49.768;8.636;2023-12-14T10:09:37;22.27;;;13.27;;
59434;SDS011;45241;49.768;8.636;2023-12-14T10:12:07;22.42;;;12.80;;
59434;SDS011;45241;49.768;8.636;2023-12-14T10:14:34;22.77;;;13.77;;
59434;SDS011;45241;49.768;8.636;2023-12-14T10:17:19;22.10;;;12.68;;
59434;SDS011;45241;49.768;8.636;2023-12-14T10:19:46;21.60;;;13.70;;
59434;SDS011;45241;49.768;8.636;2023-12-14T10:22:14;18.85;;;11.68;;
59434;SDS011;45241;49.768;8.636;2023-12-14T10:24:44;21.92;;;13.10;;
59434;SDS011;45241;49.768;8.636;2023-12-14T10:27:10;23.75;;;13.93;;
59434;SDS011;45241;49.768;8.636;2023-12-14T10:29:39;22.45;;;13.50;;
59434;SDS011;45241;49.768;8.636;2023-12-14T10:32:05;25.75;;;13.95;;
59434;SDS011;45241;49.768;8.636;2023-12-14T10:34:32;23.30;;;13.90;;
59434;SDS011;45241;49.768;8.636;2023-12-14T10:36:58;22.30;;;13.48;;
59434;SDS011;45241;49.768;8.636;2023-12-14T10:39:24;20.27;;;12.98;;
59434;SDS011;45241;49.768;8.636;2023-12-14T10:41:51;25.73;;;14.63;;
59434;SDS011;45241;49.768;8.636;2023-12-14T10:44:19;21.55;;;14.20;;
59434;SDS011;45241;49.768;8.636;2023-12-14T10:46:47;20.98;;;12.90;;
59434;SDS011;45241;49.768;8.636;2023-12-14T10:49:13;21.10;;;12.80;;
59434;SDS011;45241;49.768;8.636;2023-12-14T10:51:40;20.63;;;13.48;;
59434;SDS011;45241;49.768;8.636;2023-12-14T10:54:07;24.15;;;13.75;;
59434;SDS011;45241;49.768;8.636;2023-12-14T10:56:33;25.02;;;13.50;;
59434;SDS011;45241;49.768;8.636;2023-12-14T10:58:59;20.58;;;12.60;;
59434;SDS011;45241;49.768;8.636;2023-12-14T11:01:25;20.13;;;11.80;;
59434;SDS011;45241;49.768;8.636;2023-12-14T11:03:54;17.40;;;11.40;;
59434;SDS011;45241;49.768;8.636;2023-12-14T11:08:50;15.85;;;9.93;;
59434;SDS011;45241;49.768;8.636;2023-12-14T11:11:17;19.40;;;12.25;;
59434;SDS011;45241;49.768;8.636;2023-12-14T11:13:46;21.98;;;13.73;;
59434;SDS011;45241;49.768;8.636;2023-12-14T11:16:21;21.52;;;12.90;;
59434;SDS011;45241;49.768;8.636;2023-12-14T11:18:47;20.75;;;12.43;;
59434;SDS011;45241;49.768;8.636;2023-12-14T11:21:19;23.05;;;12.50;;
59434;SDS011;45241;49.768;8.636;2023-12-14T11:23:50;21.15;;;12.73;;
59434;SDS011;45241;49.768;8.636;2023-12-14T11:26:20;23.38;;;13.38;;
59434;SDS011;45241;49.768;8.636;2023-12-14T11:28:47;21.42;;;12.63;;
59434;SDS011;45241;49.768;8.636;2023-12-14T11:31:13;19.85;;;11.50;;
59434;SDS011;45241;49.768;8.636;2023-12-14T11:33:39;18.45;;;10.55;;
59434;SDS011;45241;49.768;8.636;2023-12-14T11:36:05;21.30;;;11.45;;
59434;SDS011;45241;49.768;8.636;2023-12-14T11:38:31;19.50;;;10.73;;
59434;SDS011;45241;49.768;8.636;2023-12-14T11:40:57;15.52;;;9.30;;
59434;SDS011;45241;49.768;8.636;2023-12-14T11:43:23;16.05;;;9.50;;
59434;SDS011;45241;49.768;8.636;2023-12-14T11:45:51;13.15;;;7.85;;
59434;SDS011;45241;49.768;8.636;2023-12-14T11:48:17;9.43;;;6.43;;
59434;SDS011;45241;49.768;8.636;2023-12-14T11:50:44;10.95;;;6.30;;
59434;SDS011;45241;49.768;8.636;2023-12-14T11:53:10;8.10;;;5.55;;
59434;SDS011;45241;49.768;8.636;2023-12-14T11:55:36;9.95;;;5.53;;
59434;SDS011;45241;49.768;8.636;2023-12-14T11:58:03;9.30;;;5.60;;
59434;SDS011;45241;49.768;8.636;2023-12-14T12:00:31;7.40;;;4.90;;
59434;SDS011;45241;49.768;8.636;2023-12-14T12:03:11;9.48;;;5.28;;
59434;SDS011;45241;49.768;8.636;2023-12-14T12:05:37;8.23;;;4.90;;
59434;SDS011;45241;49.768;8.636;2023-12-14T12:08:07;6.88;;;4.65;;
59434;SDS011;45241;49.768;8.636;2023-12-14T12:10:34;9.05;;;4.80;;
59434;SDS011;45241;49.768;8.636;2023-12-14T12:13:00;6.78;;;4.28;;
59434;SDS011;45241;49.768;8.636;2023-12-14T12:15:27;7.07;;;4.55;;
59434;SDS011;45241;49.768;8.636;2023-12-14T12:17:52;6.10;;;4.10;;
59434;SDS011;45241;49.768;8.636;2023-12-14T12:20:18;7.78;;;4.22;;
59434;SDS011;45241;49.768;8.636;2023-12-14T12:22:43;5.82;;;4.00;;
59434;SDS011;45241;49.768;8.636;2023-12-14T12:25:09;9.20;;;4.28;;
59434;SDS011;45241;49.768;8.636;2023-12-14T12:27:34;9.48;;;5.20;;
59434;SDS011;45241;49.768;8.636;2023-12-14T12:29:59;8.60;;;5.55;;
59434;SDS011;45241;49.768;8.636;2023-12-14T12:32:24;8.85;;;5.45;;
59434;SDS011;45241;49.768;8.636;2023-12-14T12:34:50;9.95;;;5.78;;
59434;SDS011;45241;49.768;8.636;2023-12-14T12:37:17;9.45;;;5.85;;
59434;SDS011;45241;49.768;8.636;2023-12-14T12:39:42;8.02;;;5.00;;
59434;SDS011;45241;49.768;8.636;2023-12-14T12:42:08;9.23;;;5.15;;
59434;SDS011;45241;49.768;8.636;2023-12-14T12:44:33;9.57;;;6.32;;
59434;SDS011;45241;49.768;8.636;2023-12-14T12:47:01;9.75;;;5.38;;
59434;SDS011;45241;49.768;8.636;2023-12-14T12:49:31;8.48;;;5.30;;
59434;SDS011;45241;49.768;8.636;2023-12-14T12:51:56;10.02;;;5.72;;
59434;SDS011;45241;49.768;8.636;2023-12-14T12:54:21;10.73;;;5.95;;
59434;SDS011;45241;49.768;8.636;2023-12-14T12:56:46;9.15;;;6.07;;
59434;SDS011;45241;49.768;8.636;2023-12-14T12:59:13;10.27;;;5.35;;
59434;SDS011;45241;49.768;8.636;2023-12-14T13:01:39;9.88;;;5.63;;
59434;SDS011;45241;49.768;8.636;2023-12-14T13:04:04;9.30;;;5.65;;
59434;SDS011;45241;49.768;8.636;2023-12-14T13:06:43;8.85;;;5.32;;
59434;SDS011;45241;49.768;8.636;2023-12-14T13:09:08;9.20;;;5.85;;
59434;SDS011;45241;49.768;8.636;2023-12-14T13:11:33;7.32;;;5.15;;
59434;SDS011;45241;49.768;8.636;2023-12-14T13:13:58;11.75;;;6.40;;
59434;SDS011;45241;49.768;8.636;2023-12-14T13:16:26;10.77;;;5.88;;
59434;SDS011;45241;49.768;8.636;2023-12-14T13:18:51;9.00;;;5.25;;
59434;SDS011;45241;49.768;8.636;2023-12-14T13:21:16;8.65;;;5.68;;
59434;SDS011;45241;49.768;8.636;2023-12-14T13:23:41;8.38;;;5.13;;
59434;SDS011;45241;49.768;8.636;2023-12-14T13:26:08;9.27;;;5.18;;
59434;SDS011;45241;49.768;8.636;2023-12-14T13:28:34;8.95;;;5.15;;
59434;SDS011;45241;49.768;8.636;2023-12-14T13:30:59;8.68;;;5.88;;
59434;SDS011;45241;49.768;8.636;2023-12-14T13:33:25;9.48;;;5.70;;
59434;SDS011;45241;49.768;8.636;2023-12-14T13:35:50;8.43;;;6.13;;
59434;SDS011;45241;49.768;8.636;2023-12-14T13:38:15;11.55;;;5.68;;
59434;SDS011;45241;49.768;8.636;2023-12-14T13:40:41;9.93;;;5.95;;
59434;SDS011;45241;49.768;8.636;2023-12-14T13:43:06;9.95;;;6.40;;
59434;SDS011;45241;49.768;8.636;2023-12-14T13:45:35;11.68;;;6.97;;
59434;SDS011;45241;49.768;8.636;2023-12-14T13:48:02;11.85;;;6.00;;
59434;SDS011;45241;49.768;8.636;2023-12-14T13:50:27;9.75;;;5.65;;
59434;SDS011;45241;49.768;8.636;2023-12-14T13:52:52;8.88;;;5.40;;
59434;SDS011;45241;49.768;8.636;2023-12-14T13:55:18;12.13;;;7.05;;
59434;SDS011;45241;49.768;8.636;2023-12-14T13:57:43;12.15;;;7.68;;
59434;SDS011;45241;49.768;8.636;2023-12-14T14:00:08;12.02;;;7.65;;
59434;SDS011;45241;49.768;8.636;2023-12-14T14:02:34;13.90;;;8.77;;
59434;SDS011;45241;49.768;8.636;2023-12-14T14:04:59;14.63;;;8.48;;
59434;SDS011;45241;49.768;8.636;2023-12-14T14:07:25;15.80;;;8.90;;
59434;SDS011;45241;49.768;8.636;2023-12-14T14:09:50;14.38;;;9.20;;
59434;SDS011;45241;49.768;8.636;2023-12-14T14:12:16;14.38;;;9.05;;
59434;SDS011;45241;49.768;8.636;2023-12-14T14:14:41;12.65;;;7.68;;
59434;SDS011;45241;49.768;8.636;2023-12-14T14:17:06;14.45;;;8.65;;
59434;SDS011;45241;49.768;8.636;2023-12-14T14:19:32;14.57;;;8.68;;
59434;SDS011;45241;49.768;8.636;2023-12-14T14:21:57;14.55;;;8.38;;
59434;SDS011;45241;49.768;8.636;2023-12-14T14:24:23;12.27;;;7.65;;
59434;SDS011;45241;49.768;8.636;2023-12-14T14:26:48;15.20;;;8.43;;